createdAt,value
2023-02-08T07:55:02.185Z,22.00
2023-02-08T07:57:29.511Z,24.35
2023-02-08T07:59:56.830Z,22.73
2023-02-08T08:02:24.158Z,27.48
2023-02-08T08:04:54.111Z,24.13
2023-02-08T08:07:21.437Z,25.73
2023-02-08T08:09:48.756Z,28.17
2023-02-08T08:12:16.046Z,26.42
2023-02-08T08:14:43.328Z,29.77
2023-02-08T08:17:10.657Z,31.25
2023-02-08T08:19:38.491Z,25.50
2023-02-08T08:22:05.876Z,29.33
2023-02-08T08:24:35.659Z,26.67
2023-02-08T08:27:05.867Z,26.73
2023-02-08T08:29:36.787Z,24.83
2023-02-08T08:32:05.165Z,25.15
2023-02-08T08:34:32.605Z,30.80
2023-02-08T08:37:02.653Z,29.90
2023-02-08T08:39:30.106Z,27.45
2023-02-08T08:42:04.052Z,24.77
2023-02-08T08:44:31.765Z,27.77
2023-02-08T08:47:01.280Z,24.90
2023-02-08T08:49:29.813Z,22.70
2023-02-08T08:51:58.196Z,31.42
2023-02-08T08:54:25.506Z,27.25
2023-02-08T08:56:52.914Z,25.70
2023-02-08T08:59:20.397Z,24.95
2023-02-08T09:01:47.730Z,25.90
2023-02-08T09:04:15.187Z,24.70
2023-02-08T09:06:42.554Z,27.05
2023-02-08T09:09:10.890Z,27.95
2023-02-08T09:11:38.591Z,26.42
2023-02-08T09:14:06.263Z,22.98
2023-02-08T09:16:34.183Z,24.10
2023-02-08T09:19:08.774Z,23.60
2023-02-08T09:21:37.100Z,22.80
2023-02-08T09:24:05.295Z,25.45
2023-02-08T09:26:33.182Z,24.60
2023-02-08T09:29:01.002Z,23.98
2023-02-08T09:31:36.564Z,20.40
2023-02-08T09:34:06.737Z,22.85
2023-02-08T09:36:40.039Z,26.60
2023-02-08T09:39:19.335Z,23.15
2023-02-08T09:42:43.607Z,23.90
2023-02-08T09:46:00.456Z,22.95
2023-02-08T09:48:40.712Z,22.08
2023-02-08T09:51:25.220Z,21.35
2023-02-08T09:54:22.602Z,26.00
2023-02-08T09:56:52.099Z,21.55
2023-02-08T09:59:29.899Z,26.65
2023-02-08T10:02:27.319Z,20.52
2023-02-08T10:05:06.506Z,21.50
2023-02-08T10:07:34.981Z,23.77
2023-02-08T10:10:22.762Z,25.38
2023-02-08T10:13:48.049Z,19.80
2023-02-08T10:16:59.902Z,22.98
2023-02-08T10:20:46.194Z,23.15
2023-02-08T10:24:23.419Z,18.45
2023-02-08T10:27:22.171Z,15.35
2023-02-08T10:30:40.247Z,17.42
2023-02-08T10:33:37.564Z,15.40
2023-02-08T10:36:31.042Z,14.15
2023-02-08T10:39:00.666Z,15.43
2023-02-08T10:41:36.910Z,14.30
2023-02-08T10:44:42.362Z,16.90
2023-02-08T10:47:49.585Z,16.38
2023-02-08T10:50:42.207Z,17.02
2023-02-08T10:53:18.657Z,14.63
2023-02-08T10:55:49.066Z,16.73
2023-02-08T10:58:24.331Z,18.17
2023-02-08T11:00:52.086Z,15.23
2023-02-08T11:03:30.454Z,18.65
2023-02-08T11:05:57.753Z,16.58
2023-02-08T11:08:29.145Z,14.23
2023-02-08T11:11:10.447Z,17.02
2023-02-08T11:13:51.445Z,15.73
2023-02-08T11:16:27.413Z,17.42
2023-02-08T11:18:59.410Z,16.10
2023-02-08T11:21:40.346Z,16.50
2023-02-08T11:24:50.150Z,16.13
2023-02-08T11:27:33.507Z,20.27
2023-02-08T11:30:16.199Z,16.30
2023-02-08T11:32:48.946Z,16.90
2023-02-08T11:35:25.933Z,14.90
2023-02-08T11:37:59.436Z,15.20
2023-02-08T11:40:44.227Z,15.52
2023-02-08T11:43:35.160Z,15.57
2023-02-08T11:46:05.586Z,13.70
2023-02-08T11:48:49.161Z,16.63
2023-02-08T11:51:46.380Z,14.10
2023-02-08T11:54:42.119Z,17.08
2023-02-08T11:57:27.822Z,14.40
2023-02-08T12:00:31.298Z,13.45
2023-02-08T12:03:06.130Z,13.82
2023-02-08T12:06:51.064Z,18.75
2023-02-08T12:09:30.179Z,17.48
2023-02-08T12:12:41.105Z,14.95
2023-02-08T12:15:51.375Z,14.88
2023-02-08T12:19:10.685Z,15.82
2023-02-08T12:21:49.981Z,15.77
2023-02-08T12:24:59.450Z,17.42
2023-02-08T12:28:06.903Z,14.73
2023-02-08T12:31:04.497Z,18.30
2023-02-08T12:33:52.524Z,15.73
2023-02-08T12:37:13.858Z,17.75
2023-02-08T12:40:48.980Z,16.25
2023-02-08T12:44:02.249Z,17.25
2023-02-08T12:47:03.723Z,16.30
2023-02-08T12:50:48.626Z,14.02
2023-02-08T12:53:39.799Z,14.68
2023-02-08T12:56:20.118Z,15.57
2023-02-08T12:58:59.136Z,18.13
2023-02-08T13:01:48.516Z,17.23
2023-02-08T13:04:33.072Z,14.52
2023-02-08T13:07:38.853Z,14.05
2023-02-08T13:10:36.396Z,16.60
2023-02-08T13:13:31.364Z,14.23
2023-02-08T13:16:27.781Z,17.65
2023-02-08T13:20:07.077Z,17.00
2023-02-08T13:22:42.229Z,16.42
2023-02-08T13:25:36.798Z,14.32
2023-02-08T13:28:11.071Z,16.73
2023-02-08T13:30:40.638Z,17.13
2023-02-08T13:33:27.195Z,16.73
2023-02-08T13:35:54.779Z,14.18
2023-02-08T13:38:36.618Z,17.73
2023-02-08T13:41:21.974Z,14.90
2023-02-08T13:44:37.119Z,18.63
2023-02-08T13:47:07.604Z,14.57
2023-02-08T13:49:49.724Z,13.73
2023-02-08T13:52:48.125Z,18.10
2023-02-08T13:55:31.990Z,14.50
2023-02-08T13:58:37.012Z,14.98
2023-02-08T14:01:31.380Z,14.30
2023-02-08T14:04:07.727Z,15.18
2023-02-08T14:07:40.634Z,16.73
2023-02-08T14:10:51.585Z,16.20
2023-02-08T14:13:58.021Z,17.17
2023-02-08T14:16:42.073Z,16.10
2023-02-08T14:19:18.540Z,17.27
2023-02-08T14:22:18.753Z,17.25
2023-02-08T14:25:19.889Z,15.48
2023-02-08T14:28:02.398Z,17.70
2023-02-08T14:30:38.657Z,14.15
2023-02-08T14:33:08.625Z,16.55
2023-02-08T14:36:05.505Z,18.38
2023-02-08T14:39:30.467Z,16.20
2023-02-08T14:42:06.181Z,17.58
2023-02-08T14:44:39.459Z,18.23
2023-02-08T14:47:24.742Z,16.90
2023-02-08T14:50:32.713Z,14.95
2023-02-08T14:53:37.278Z,19.38
2023-02-08T14:56:44.366Z,18.27
2023-02-08T14:59:19.350Z,17.80
2023-02-08T15:02:02.840Z,16.02
2023-02-08T15:04:31.039Z,15.50
2023-02-08T15:07:47.157Z,17.10
2023-02-08T15:10:18.847Z,20.05
2023-02-08T15:13:00.634Z,19.27
2023-02-08T15:15:39.096Z,18.00
2023-02-08T15:18:24.052Z,19.13
2023-02-08T15:21:15.273Z,17.75
2023-02-08T15:23:42.602Z,19.50
2023-02-08T15:26:24.144Z,18.02
2023-02-08T15:28:52.210Z,22.88
2023-02-08T15:31:28.611Z,17.90
2023-02-08T15:33:56.015Z,22.80
2023-02-08T15:36:36.220Z,20.20
2023-02-08T15:39:35.993Z,20.35
2023-02-08T15:42:03.454Z,20.38
2023-02-08T15:44:35.021Z,17.88
2023-02-08T15:47:13.346Z,21.05
2023-02-08T15:49:49.015Z,18.85
2023-02-08T15:52:24.757Z,17.65
2023-02-08T15:54:52.341Z,22.05
2023-02-08T15:58:15.923Z,18.77
2023-02-08T16:00:45.990Z,20.90
2023-02-08T16:03:23.764Z,19.20
2023-02-08T16:05:59.513Z,19.98
2023-02-08T16:08:42.694Z,23.80
2023-02-08T16:11:31.793Z,23.45
2023-02-08T16:14:03.069Z,24.15
2023-02-08T16:16:41.882Z,22.48
2023-02-08T16:19:33.667Z,21.33
2023-02-08T16:22:13.022Z,20.05
2023-02-08T16:24:40.372Z,21.02
2023-02-08T16:27:27.313Z,22.42
2023-02-08T16:29:55.093Z,24.75
2023-02-08T16:32:39.680Z,21.75
2023-02-08T16:35:29.602Z,21.23
2023-02-08T16:38:02.766Z,21.57
2023-02-08T16:41:11.934Z,21.38
2023-02-08T16:43:47.865Z,21.17
2023-02-08T16:46:24.519Z,22.55
2023-02-08T16:48:58.421Z,26.33
2023-02-08T16:51:31.866Z,22.20
2023-02-08T16:54:07.648Z,24.02
2023-02-08T16:56:39.819Z,22.80
2023-02-08T16:59:08.011Z,22.60
2023-02-08T17:01:38.137Z,21.42
2023-02-08T17:04:06.363Z,22.23
2023-02-08T17:06:38.231Z,23.70
2023-02-08T17:09:09.104Z,22.13
2023-02-08T17:11:37.882Z,21.35
2023-02-08T17:14:07.847Z,21.92
2023-02-08T17:16:38.274Z,17.42
2023-02-08T17:19:06.032Z,21.48
2023-02-08T17:21:35.585Z,21.77
2023-02-08T17:24:03.203Z,22.98
2023-02-08T17:26:40.896Z,24.63
2023-02-08T17:29:08.337Z,24.55
2023-02-08T17:31:35.869Z,21.80
2023-02-08T17:34:05.974Z,25.08
2023-02-08T17:36:37.114Z,16.00
2023-02-08T17:39:06.457Z,24.08
2023-02-08T17:41:33.839Z,25.00
2023-02-08T17:44:01.822Z,25.45
2023-02-08T17:46:32.769Z,22.83
2023-02-08T17:49:01.713Z,24.77
2023-02-08T17:51:30.678Z,23.25
2023-02-08T17:53:58.064Z,23.25
2023-02-08T17:56:31.159Z,20.65
2023-02-08T17:59:00.876Z,26.95
2023-02-08T18:01:28.199Z,24.15
2023-02-08T18:03:57.098Z,25.20
2023-02-08T18:06:25.187Z,26.65
2023-02-08T18:08:55.050Z,25.45
2023-02-08T18:11:24.048Z,24.73
2023-02-08T18:13:54.310Z,22.92
2023-02-08T18:16:27.190Z,26.08
2023-02-08T18:19:01.195Z,24.67
2023-02-08T18:21:33.121Z,25.65
2023-02-08T18:24:07.066Z,28.52
2023-02-08T18:26:36.035Z,26.63
2023-02-08T18:29:04.582Z,28.25
2023-02-08T18:31:32.662Z,29.42
2023-02-08T18:34:00.143Z,28.40
2023-02-08T18:36:27.555Z,27.13
2023-02-08T18:38:56.949Z,27.55
2023-02-08T18:41:29.339Z,29.60
2023-02-08T18:43:59.335Z,26.40
2023-02-08T18:46:29.598Z,28.23
2023-02-08T18:48:57.670Z,27.80
2023-02-08T18:51:27.384Z,30.38
2023-02-08T18:53:56.075Z,28.52
2023-02-08T18:56:27.984Z,28.25
2023-02-08T18:59:00.680Z,27.50
2023-02-08T19:01:28.140Z,29.13
2023-02-08T19:03:56.029Z,29.75
2023-02-08T19:06:28.583Z,28.48
2023-02-08T19:09:01.619Z,28.13
2023-02-08T19:11:39.383Z,28.05
2023-02-08T19:14:14.724Z,27.67
2023-02-08T19:16:43.186Z,26.92
2023-02-08T19:19:11.231Z,28.15
2023-02-08T19:21:39.705Z,27.10
2023-02-08T19:24:07.500Z,29.88
2023-02-08T19:26:39.885Z,33.75
2023-02-08T19:29:15.912Z,27.10
2023-02-08T19:31:45.012Z,27.25
2023-02-08T19:34:12.927Z,29.55
2023-02-08T19:36:52.017Z,25.38
2023-02-08T19:39:27.715Z,25.67
2023-02-08T19:41:58.407Z,29.42
2023-02-08T19:44:27.277Z,27.70
2023-02-08T19:46:56.203Z,25.55
2023-02-08T19:49:26.210Z,28.55
2023-02-08T19:51:54.443Z,28.60
2023-02-08T19:54:22.616Z,29.50
2023-02-08T19:56:50.434Z,34.30
2023-02-08T19:59:34.143Z,32.67
2023-02-08T20:02:15.555Z,28.73
2023-02-08T20:04:42.909Z,30.33
2023-02-08T20:07:10.556Z,29.27
2023-02-08T20:09:38.240Z,29.02
2023-02-08T20:12:06.151Z,31.10
2023-02-08T20:14:34.607Z,29.65
2023-02-08T20:17:03.532Z,28.45
2023-02-08T20:19:31.015Z,32.80
2023-02-08T20:21:58.354Z,29.42
2023-02-08T20:24:26.578Z,32.55
2023-02-08T20:26:54.230Z,30.15
2023-02-08T20:29:21.723Z,33.90
2023-02-08T20:31:53.516Z,27.42
2023-02-08T20:34:21.617Z,33.28
2023-02-08T20:37:05.669Z,26.02
2023-02-08T20:39:37.076Z,25.50
2023-02-08T20:42:05.498Z,29.23
2023-02-08T20:44:32.839Z,36.67
2023-02-08T20:47:00.648Z,32.50
2023-02-08T20:49:29.367Z,36.90
2023-02-08T20:51:56.793Z,29.20
2023-02-08T20:54:25.345Z,30.15
2023-02-08T20:56:54.263Z,31.38
2023-02-08T20:59:22.557Z,31.58
2023-02-08T21:01:51.533Z,30.88
2023-02-08T21:04:23.264Z,30.35
